Time;durP1;ratioP1;P1;durP2;ratioP2;P2;SDS_P1;SDS_P2;PMS_P1;PMS_P2;Temp;Humidity;BMP_temperature;BMP_pressure;BME280_temperature;BME280_humidity;BME280_pressure;Samples;Min_cycle;Max_cycle;Signal;HPM_P1;HPM_P2
2022/03/04 00:00:09;;;;;;;;;;;1.30;99.90;;;;;;5090371;28;20010;-57
2022/03/04 00:02:35;;;;;;;;;;;1.30;99.90;;;;;;5087962;28;19954;-56
2022/03/04 00:05:00;;;;;;;;;;;1.30;99.90;;;;;;5091627;28;20373;-56
2022/03/04 00:07:26;;;;;;;;;;;1.30;99.90;;;;;;5088783;28;19956;-57
2022/03/04 00:09:51;;;;;;;;;;;1.30;99.90;;;;;;5095409;28;20276;-57
2022/03/04 00:12:17;;;;;;;;;;;1.30;99.90;;;;;;5089663;28;19919;-57
2022/03/04 00:14:42;;;;;;;;;;;1.30;99.90;;;;;;5069945;28;20022;-57
2022/03/04 00:17:08;;;;;;;;;;;1.30;99.90;;;;;;5099093;28;19963;-55
2022/03/04 00:19:33;;;;;;;;;;;1.20;99.90;;;;;;5089531;28;19923;-57
2022/03/04 00:21:59;;;;;;;;;;;1.20;99.90;;;;;;5096564;28;20291;-56
2022/03/04 00:24:25;;;;;;;;;;;1.20;99.90;;;;;;5072785;28;19920;-57
2022/03/04 00:26:50;;;;;;;;;;;1.10;99.90;;;;;;5104061;28;19966;-57
2022/03/04 00:29:16;;;;;;;;;;;1.10;99.90;;;;;;5104584;28;19961;-56
2022/03/04 00:31:42;;;;;;;;;;;1.10;99.90;;;;;;5101430;28;19927;-57
2022/03/04 00:34:07;;;;;;;;;;;1.00;99.90;;;;;;5099571;28;19994;-57
2022/03/04 00:36:33;;;;;;;;;;;1.00;99.90;;;;;;5092090;28;19924;-57
2022/03/04 00:38:58;;;;;;;;;;;0.90;99.90;;;;;;5094170;28;19981;-55
2022/03/04 00:41:24;;;;;;;;;;;0.90;99.90;;;;;;5100080;28;20377;-57
2022/03/04 00:43:50;;;;;;;;;;;0.80;99.90;;;;;;5095178;28;19977;-57
2022/03/04 00:46:16;;;;;;;;;;;0.90;99.90;;;;;;5098576;28;19977;-57
2022/03/04 00:48:42;;;;;;;;;;;0.80;99.90;;;;;;5101564;28;19926;-57
2022/03/04 00:51:08;;;;;;;;;;;0.70;99.90;;;;;;5095585;28;19947;-57
2022/03/04 00:53:34;;;;;;;;;;;0.70;99.90;;;;;;5101771;28;19934;-56
2022/03/04 00:55:59;;;;;;;;;;;0.70;99.90;;;;;;5105130;28;19928;-57
2022/03/04 00:58:25;;;;;;;;;;;0.60;99.90;;;;;;5098678;28;19919;-57
2022/03/04 01:00:50;;;;;;;;;;;0.60;99.90;;;;;;5094930;28;20010;-57
2022/03/04 01:03:16;;;;;;;;;;;0.60;99.90;;;;;;5097995;28;19920;-58
2022/03/04 01:05:41;;;;;;;;;;;0.60;99.90;;;;;;5088737;28;20023;-56
2022/03/04 01:08:07;;;;;;;;;;;0.50;99.90;;;;;;5094878;28;19947;-57
2022/03/04 01:10:33;;;;;;;;;;;0.50;99.90;;;;;;5095483;28;20005;-57
2022/03/04 01:12:59;;;;;;;;;;;0.50;99.90;;;;;;5099302;28;19955;-57
2022/03/04 01:15:24;;;;;;;;;;;0.50;99.90;;;;;;5100414;28;19935;-57
2022/03/04 01:17:50;;;;;;;;;;;0.40;99.90;;;;;;5093617;28;19975;-57
2022/03/04 01:20:15;;;;;;;;;;;0.40;99.90;;;;;;5103390;28;20338;-57
2022/03/04 01:22:40;;;;;;;;;;;0.40;99.90;;;;;;5098344;28;19920;-57
2022/03/04 01:25:06;;;;;;;;;;;0.40;99.90;;;;;;5102546;28;20013;-57
2022/03/04 01:27:32;;;;;;;;;;;0.30;99.90;;;;;;5105516;28;19931;-57
2022/03/04 01:29:57;;;;;;;;;;;0.30;99.90;;;;;;5093916;28;19924;-57
2022/03/04 01:32:23;;;;;;;;;;;0.30;99.90;;;;;;5097319;28;20429;-57
2022/03/04 01:34:48;;;;;;;;;;;0.30;99.90;;;;;;5102629;28;19923;-57
2022/03/04 01:37:14;;;;;;;;;;;0.30;99.90;;;;;;5071182;28;19927;-56
2022/03/04 01:39:39;;;;;;;;;;;0.30;99.90;;;;;;5096320;28;20298;-57
2022/03/04 01:42:05;;;;;;;;;;;0.20;99.90;;;;;;5102348;28;19930;-57
2022/03/04 01:44:30;;;;;;;;;;;0.20;99.90;;;;;;5105186;28;20358;-57
2022/03/04 01:46:56;;;;;;;;;;;0.20;99.90;;;;;;5073640;28;19920;-57
2022/03/04 01:49:21;;;;;;;;;;;0.10;99.90;;;;;;5091480;28;19924;-57
2022/03/04 01:51:47;;;;;;;;;;;0.10;99.90;;;;;;5099701;28;20291;-57
2022/03/04 01:54:13;;;;;;;;;;;0.10;99.90;;;;;;5095504;28;19970;-56
2022/03/04 01:56:38;;;;;;;;;;;0.10;99.90;;;;;;5097644;28;19923;-57
2022/03/04 01:59:04;;;;;;;;;;;0.00;99.90;;;;;;5096371;28;19920;-57
2022/03/04 02:01:30;;;;;;;;;;;0.00;99.90;;;;;;5100671;28;19919;-56
2022/03/04 02:03:55;;;;;;;;;;;0.00;99.90;;;;;;5091459;28;20027;-57
2022/03/04 02:06:21;;;;;;;;;;;-0.10;99.90;;;;;;5090200;28;19920;-57
2022/03/04 02:08:47;;;;;;;;;;;-0.10;99.90;;;;;;5095635;28;19926;-58
2022/03/04 02:11:12;;;;;;;;;;;-0.10;99.90;;;;;;5095974;28;19924;-57
2022/03/04 02:13:39;;;;;;;;;;;-0.20;99.90;;;;;;5101476;28;20377;-57
2022/03/04 02:16:10;;;;;;;;;;;-0.10;99.90;;;;;;5097163;28;19999;-57
2022/03/04 02:18:36;;;;;;;;;;;-0.20;99.90;;;;;;5095611;28;19928;-56
2022/03/04 02:21:02;;;;;;;;;;;-0.20;99.90;;;;;;5100174;28;19977;-57
2022/03/04 02:23:28;;;;;;;;;;;-0.20;99.90;;;;;;5071330;28;19920;-57
2022/03/04 02:25:53;;;;;;;;;;;-0.20;99.90;;;;;;5093674;28;19927;-55
2022/03/04 02:28:20;;;;;;;;;;;-0.20;99.90;;;;;;5095980;28;19919;-58
2022/03/04 02:30:45;;;;;;;;;;;-0.30;99.90;;;;;;5098546;28;20423;-57
2022/03/04 02:33:11;;;;;;;;;;;-0.30;99.90;;;;;;5097144;28;19949;-57
2022/03/04 02:35:37;;;;;;;;;;;-0.30;99.90;;;;;;5073357;28;19919;-57
2022/03/04 02:38:03;;;;;;;;;;;-0.30;99.90;;;;;;5098494;28;20458;-57
2022/03/04 02:40:28;;;;;;;;;;;-0.40;99.90;;;;;;5103416;28;19924;-57
2022/03/04 02:42:54;;;;;;;;;;;-0.40;99.90;;;;;;5103798;28;19969;-56
2022/03/04 02:45:20;;;;;;;;;;;-0.40;99.90;;;;;;5102677;28;19926;-56
2022/03/04 02:47:45;;;;;;;;;;;-0.40;99.90;;;;;;5075728;28;19973;-58
2022/03/04 02:50:11;;;;;;;;;;;-0.50;99.90;;;;;;5100162;28;19919;-57
2022/03/04 02:52:36;;;;;;;;;;;-0.50;99.90;;;;;;5102984;28;20015;-57
2022/03/04 02:55:02;;;;;;;;;;;-0.50;99.90;;;;;;5107053;28;19919;-57
2022/03/04 02:57:27;;;;;;;;;;;-0.60;99.90;;;;;;5106464;28;19920;-57
2022/03/04 02:59:53;;;;;;;;;;;-0.60;99.90;;;;;;5100952;28;21354;-55
2022/03/04 03:02:18;;;;;;;;;;;-0.60;99.90;;;;;;5103586;28;19951;-57
2022/03/04 03:04:44;;;;;;;;;;;-0.60;99.90;;;;;;5096783;28;20322;-57
2022/03/04 03:07:09;;;;;;;;;;;-0.60;99.90;;;;;;5093886;28;19920;-57
2022/03/04 03:09:35;;;;;;;;;;;-0.60;99.90;;;;;;5100897;28;20055;-57
2022/03/04 03:12:00;;;;;;;;;;;-0.60;99.90;;;;;;5099026;28;19924;-57
2022/03/04 03:14:26;;;;;;;;;;;-0.70;99.90;;;;;;5097966;28;20113;-57
2022/03/04 03:16:51;;;;;;;;;;;-0.70;99.90;;;;;;5092263;28;20018;-57
2022/03/04 03:19:17;;;;;;;;;;;-0.70;99.90;;;;;;5096904;28;20411;-57
2022/03/04 03:21:42;;;;;;;;;;;-0.70;99.90;;;;;;5102687;28;19924;-57
2022/03/04 03:24:08;;;;;;;;;;;-0.70;99.90;;;;;;5105689;28;19927;-58
2022/03/04 03:26:33;;;;;;;;;;;-0.70;99.90;;;;;;5097202;28;19923;-57
2022/03/04 03:28:59;;;;;;;;;;;-0.80;99.90;;;;;;5100626;28;19920;-58
2022/03/04 03:31:24;;;;;;;;;;;;;;;;;;5101817;28;20293;-58
2022/03/04 03:33:50;;;;;;;;;;;-0.80;99.90;;;;;;5092599;28;19927;-57
2022/03/04 03:36:16;;;;;;;;;;;-0.80;99.90;;;;;;5109408;28;19924;-58
2022/03/04 03:38:41;;;;;;;;;;;-0.90;99.90;;;;;;5096154;28;19920;-57
2022/03/04 03:41:07;;;;;;;;;;;-0.80;99.90;;;;;;5099304;28;19919;-58
2022/03/04 03:43:32;;;;;;;;;;;-0.90;99.90;;;;;;5077684;28;19926;-57
2022/03/04 03:45:57;;;;;;;;;;;-1.00;99.90;;;;;;5098022;28;19919;-57
2022/03/04 03:48:23;;;;;;;;;;;-1.00;99.90;;;;;;5105491;28;20005;-57
2022/03/04 03:50:48;;;;;;;;;;;-1.00;99.90;;;;;;5077715;28;19938;-58
2022/03/04 03:53:14;;;;;;;;;;;-1.00;99.90;;;;;;5093882;28;19954;-58
2022/03/04 03:55:40;;;;;;;;;;;-1.10;99.90;;;;;;5081825;28;19920;-57
2022/03/04 03:58:06;;;;;;;;;;;-1.10;99.90;;;;;;5102383;28;19927;-57
2022/03/04 04:00:31;;;;;;;;;;;-1.10;99.90;;;;;;5106240;28;20015;-57
2022/03/04 04:02:57;;;;;;;;;;;-1.10;99.90;;;;;;5090834;28;19920;-57
2022/03/04 04:05:22;;;;;;;;;;;-1.10;99.90;;;;;;5095116;28;20029;-57
2022/03/04 04:07:48;;;;;;;;;;;-1.10;99.90;;;;;;5091670;28;20022;-57
2022/03/04 04:10:13;;;;;;;;;;;-1.20;99.90;;;;;;5090263;28;20002;-58
2022/03/04 04:12:39;;;;;;;;;;;-1.20;99.90;;;;;;5090719;28;20293;-58
2022/03/04 04:15:04;;;;;;;;;;;-1.20;99.90;;;;;;5087541;28;19927;-57
2022/03/04 04:17:30;;;;;;;;;;;-1.20;99.90;;;;;;5070548;28;19927;-57
2022/03/04 04:19:55;;;;;;;;;;;-1.20;99.90;;;;;;5095049;28;19920;-58
2022/03/04 04:22:21;;;;;;;;;;;-1.20;99.90;;;;;;5092563;28;19985;-58
2022/03/04 04:24:46;;;;;;;;;;;-1.20;99.90;;;;;;5091253;28;19969;-57
2022/03/04 04:27:12;;;;;;;;;;;-1.20;99.90;;;;;;5097531;28;20333;-56
2022/03/04 04:29:37;;;;;;;;;;;-1.20;99.90;;;;;;5104682;28;19920;-58
2022/03/04 04:32:03;;;;;;;;;;;-1.30;99.90;;;;;;5109815;28;19931;-58
2022/03/04 04:34:28;;;;;;;;;;;-1.30;99.90;;;;;;5098390;28;19927;-57
2022/03/04 04:36:54;;;;;;;;;;;-1.30;99.90;;;;;;5104312;28;19920;-57
2022/03/04 04:39:19;;;;;;;;;;;-1.30;99.90;;;;;;5093379;28;20301;-57
2022/03/04 04:41:45;;;;;;;;;;;-1.30;99.90;;;;;;5098498;28;19920;-58
2022/03/04 04:44:11;;;;;;;;;;;-1.30;99.90;;;;;;5100985;28;19970;-57
2022/03/04 04:46:36;;;;;;;;;;;-1.30;99.90;;;;;;5096536;28;19920;-57
2022/03/04 04:49:02;;;;;;;;;;;-1.30;99.90;;;;;;5099143;28;19921;-57
2022/03/04 04:51:27;;;;;;;;;;;-1.30;99.90;;;;;;5095812;28;20357;-57
2022/03/04 04:53:53;;;;;;;;;;;-1.30;99.90;;;;;;5099850;28;20006;-58
2022/03/04 04:56:19;;;;;;;;;;;-1.30;99.90;;;;;;5098755;28;19924;-58
2022/03/04 04:58:45;;;;;;;;;;;-1.20;99.90;;;;;;5097613;28;19954;-55
2022/03/04 05:01:10;;;;;;;;;;;-1.20;99.90;;;;;;5100708;28;19919;-57
2022/03/04 05:03:36;;;;;;;;;;;-1.20;99.90;;;;;;5068596;28;19928;-57
2022/03/04 05:06:02;;;;;;;;;;;-1.10;99.90;;;;;;5097872;28;20050;-57
2022/03/04 05:08:29;;;;;;;;;;;-1.10;99.90;;;;;;5101727;28;20312;-58
2022/03/04 05:10:55;;;;;;;;;;;-1.10;99.90;;;;;;5095015;28;19924;-56
2022/03/04 05:13:21;;;;;;;;;;;-1.00;99.90;;;;;;5100914;28;19920;-58
2022/03/04 05:15:46;;;;;;;;;;;-1.00;99.90;;;;;;5073286;28;19981;-57
2022/03/04 05:18:12;;;;;;;;;;;-1.00;99.90;;;;;;5093337;28;20031;-57
2022/03/04 05:20:37;;;;;;;;;;;-1.00;99.90;;;;;;5097153;28;20385;-58
2022/03/04 05:23:03;;;;;;;;;;;-1.00;99.90;;;;;;5101779;28;19919;-57
2022/03/04 05:25:28;;;;;;;;;;;-0.90;99.90;;;;;;5094759;28;20322;-58
2022/03/04 05:27:54;;;;;;;;;;;-0.90;99.90;;;;;;5103573;28;19943;-57
2022/03/04 05:30:20;;;;;;;;;;;-0.90;99.90;;;;;;5090221;28;20317;-57
2022/03/04 05:32:45;;;;;;;;;;;-0.90;99.90;;;;;;5105972;28;19919;-58
2022/03/04 05:35:11;;;;;;;;;;;-0.90;99.90;;;;;;5098349;28;19935;-58
2022/03/04 05:37:36;;;;;;;;;;;-0.90;99.90;;;;;;5092188;28;20010;-57
2022/03/04 05:40:02;;;;;;;;;;;-0.90;99.90;;;;;;5101679;28;19938;-58
2022/03/04 05:42:27;;;;;;;;;;;-0.80;99.90;;;;;;5070750;28;19926;-57
2022/03/04 05:44:53;;;;;;;;;;;-0.80;99.90;;;;;;5090599;28;19948;-57
2022/03/04 05:47:18;;;;;;;;;;;-0.80;99.90;;;;;;5054128;28;20285;-56
2022/03/04 05:49:44;;;;;;;;;;;-0.80;99.90;;;;;;5072433;28;19920;-57
2022/03/04 05:52:09;;;;;;;;;;;-0.80;99.90;;;;;;5089152;28;19974;-58
2022/03/04 05:54:35;;;;;;;;;;;-0.80;99.90;;;;;;5071709;28;20366;-57
2022/03/04 05:57:01;;;;;;;;;;;-0.80;99.90;;;;;;5091534;28;20412;-57
2022/03/04 05:59:27;;;;;;;;;;;-0.80;99.90;;;;;;5090220;28;20330;-58
2022/03/04 06:01:52;;;;;;;;;;;-0.80;99.90;;;;;;5090699;28;19920;-58
2022/03/04 06:04:17;;;;;;;;;;;-0.70;99.90;;;;;;5089934;28;19927;-58
2022/03/04 06:06:43;;;;;;;;;;;-0.70;99.90;;;;;;5092962;28;19927;-57
2022/03/04 06:09:09;;;;;;;;;;;-0.70;99.90;;;;;;5094413;28;19951;-57
2022/03/04 06:11:35;;;;;;;;;;;-0.70;99.90;;;;;;5095036;28;19920;-58
2022/03/04 06:14:00;;;;;;;;;;;-0.70;99.90;;;;;;5094723;28;19927;-57
2022/03/04 06:16:26;;;;;;;;;;;-0.70;99.90;;;;;;5094716;28;20034;-58
2022/03/04 06:18:52;;;;;;;;;;;-0.70;99.90;;;;;;5094108;28;19928;-57
2022/03/04 06:21:18;;;;;;;;;;;-0.70;99.90;;;;;;5095113;28;20010;-57
2022/03/04 06:23:44;;;;;;;;;;;-0.70;99.90;;;;;;5096026;28;19924;-57
2022/03/04 06:26:10;;;;;;;;;;;-0.70;99.90;;;;;;5090483;28;19920;-57
2022/03/04 06:28:35;;;;;;;;;;;-0.70;99.90;;;;;;5088300;28;19927;-57
2022/03/04 06:31:01;;;;;;;;;;;-0.70;99.90;;;;;;5087867;28;19920;-57
2022/03/04 06:33:32;;;;;;;;;;;-0.70;99.90;;;;;;5086767;28;19924;-58
2022/03/04 06:35:59;;;;;;;;;;;-0.70;99.90;;;;;;5070467;28;19970;-58
2022/03/04 06:38:25;;;;;;;;;;;-0.70;99.90;;;;;;5087583;28;19938;-57
2022/03/04 06:40:50;;;;;;;;;;;-0.70;99.90;;;;;;5069197;28;20411;-56
2022/03/04 06:43:16;;;;;;;;;;;-0.70;99.90;;;;;;5088288;28;20391;-58
2022/03/04 06:45:42;;;;;;;;;;;-0.80;99.90;;;;;;5070265;28;20063;-57
2022/03/04 06:48:08;;;;;;;;;;;-0.70;99.90;;;;;;5089914;28;19924;-58
2022/03/04 06:50:34;;;;;;;;;;;-0.70;99.90;;;;;;5085233;28;19928;-58
2022/03/04 06:52:59;;;;;;;;;;;-0.70;99.90;;;;;;5067719;28;19924;-58
2022/03/04 06:55:25;;;;;;;;;;;-0.70;99.90;;;;;;5090691;28;19926;-58
2022/03/04 06:57:51;;;;;;;;;;;-0.70;99.90;;;;;;5089447;28;19920;-57
2022/03/04 07:00:17;;;;;;;;;;;-0.70;99.90;;;;;;5087717;28;19928;-57
2022/03/04 07:02:42;;;;;;;;;;;-0.60;99.90;;;;;;5085773;28;20499;-57
2022/03/04 07:05:08;;;;;;;;;;;-0.60;99.90;;;;;;5087906;28;19931;-58
2022/03/04 07:07:34;;;;;;;;;;;-0.60;99.90;;;;;;5068925;28;19931;-57
2022/03/04 07:09:59;;;;;;;;;;;-0.60;99.90;;;;;;5088115;28;20007;-57
2022/03/04 07:12:25;;;;;;;;;;;-0.60;99.90;;;;;;5085826;28;19935;-57
2022/03/04 07:14:51;;;;;;;;;;;-0.50;99.90;;;;;;5089405;28;20554;-57
2022/03/04 07:17:16;;;;;;;;;;;-0.50;99.90;;;;;;5086281;28;19978;-57
2022/03/04 07:19:42;;;;;;;;;;;-0.50;99.90;;;;;;5079890;28;19989;-57
2022/03/04 07:22:08;;;;;;;;;;;-0.50;99.90;;;;;;5085397;28;19982;-57
2022/03/04 07:24:33;;;;;;;;;;;-0.50;99.90;;;;;;5089184;28;19943;-57
2022/03/04 07:26:59;;;;;;;;;;;-0.50;99.90;;;;;;5091740;28;19923;-58
2022/03/04 07:29:25;;;;;;;;;;;-0.60;99.90;;;;;;5097692;28;19930;-57
2022/03/04 07:31:53;;;;;;;;;;;-0.60;99.90;;;;;;5072940;28;19935;-55
2022/03/04 07:34:19;;;;;;;;;;;-0.60;99.90;;;;;;5097230;28;20011;-56
2022/03/04 07:36:44;;;;;;;;;;;-0.50;99.90;;;;;;5095819;28;19963;-57
2022/03/04 07:39:10;;;;;;;;;;;-0.50;99.90;;;;;;5095072;28;19920;-56
2022/03/04 07:41:35;;;;;;;;;;;-0.40;99.90;;;;;;5095895;28;20362;-57
2022/03/04 07:44:01;;;;;;;;;;;-0.40;99.90;;;;;;5100791;28;19928;-57
2022/03/04 07:46:26;;;;;;;;;;;-0.40;99.90;;;;;;5101922;28;19926;-57
2022/03/04 07:48:52;;;;;;;;;;;-0.40;99.90;;;;;;5108766;28;20366;-57
2022/03/04 07:51:17;;;;;;;;;;;-0.50;99.90;;;;;;5106063;28;19920;-57
2022/03/04 07:53:43;;;;;;;;;;;-0.50;99.90;;;;;;5104005;28;19959;-55
2022/03/04 07:56:09;;;;;;;;;;;-0.40;99.90;;;;;;5110582;28;20274;-58
2022/03/04 07:58:34;;;;;;;;;;;-0.40;99.90;;;;;;5074680;28;19920;-57
2022/03/04 08:01:00;;;;;;;;;;;-0.30;99.90;;;;;;5121263;28;20007;-57
2022/03/04 08:03:25;;;;;;;;;;;-0.10;99.90;;;;;;5124517;28;19941;-57
2022/03/04 08:05:50;;;;;;;;;;;-0.20;99.90;;;;;;5122253;28;20010;-57
2022/03/04 08:08:16;;;;;;;;;;;-0.20;99.90;;;;;;5110447;28;19920;-57
2022/03/04 08:10:41;;;;;;;;;;;-0.10;99.90;;;;;;5110061;28;19992;-58
2022/03/04 08:13:07;;;;;;;;;;;-0.10;99.90;;;;;;5115526;28;19923;-57
2022/03/04 08:15:32;;;;;;;;;;;0.20;99.90;;;;;;5120842;28;19919;-57
2022/03/04 08:17:58;;;;;;;;;;;0.20;99.90;;;;;;5070608;28;19920;-57
2022/03/04 08:20:26;;;;;;;;;;;0.10;99.90;;;;;;5119777;28;19920;-57
2022/03/04 08:22:52;;;;;;;;;;;0.10;99.90;;;;;;5110931;28;19992;-57
2022/03/04 08:25:18;;;;;;;;;;;0.20;99.90;;;;;;5107819;28;19919;-58
2022/03/04 08:27:44;;;;;;;;;;;0.20;99.90;;;;;;5107652;28;20006;-57
2022/03/04 08:30:11;;;;;;;;;;;0.20;99.90;;;;;;5107948;28;19928;-57
2022/03/04 08:32:36;;;;;;;;;;;0.30;99.90;;;;;;5091943;28;19920;-57
2022/03/04 08:35:02;;;;;;;;;;;;;;;;;;5109927;28;19927;-57
2022/03/04 08:37:27;;;;;;;;;;;0.50;99.90;;;;;;5090370;28;19920;-57
2022/03/04 08:39:53;;;;;;;;;;;0.60;99.90;;;;;;5107383;28;19963;-58
2022/03/04 08:42:19;;;;;;;;;;;0.70;99.90;;;;;;5107883;28;20042;-57
2022/03/04 08:44:44;;;;;;;;;;;0.90;99.90;;;;;;5111207;28;19919;-57
2022/03/04 08:47:09;;;;;;;;;;;1.00;99.90;;;;;;5115550;28;19920;-57
2022/03/04 08:49:35;;;;;;;;;;;0.90;99.90;;;;;;5108572;28;19941;-58
2022/03/04 08:52:01;;;;;;;;;;;1.00;99.90;;;;;;5105714;28;19920;-57
2022/03/04 08:54:27;;;;;;;;;;;1.10;99.90;;;;;;5112496;28;19920;-58
2022/03/04 08:56:52;;;;;;;;;;;1.20;99.90;;;;;;5107777;28;20647;-58
2022/03/04 08:59:18;;;;;;;;;;;1.10;99.90;;;;;;5102894;28;19926;-58
2022/03/04 09:01:44;;;;;;;;;;;1.10;99.90;;;;;;5106729;28;20046;-58
2022/03/04 09:04:14;;;;;;;;;;;1.20;99.90;;;;;;5112140;28;19937;-58
2022/03/04 09:06:40;;;;;;;;;;;1.00;99.90;;;;;;5104047;28;19920;-58
2022/03/04 09:09:05;;;;;;;;;;;1.10;99.90;;;;;;5103838;28;20010;-57
2022/03/04 09:11:31;;;;;;;;;;;1.10;99.90;;;;;;5113170;28;20084;-58
2022/03/04 09:13:56;;;;;;;;;;;1.10;99.90;;;;;;5099586;28;19927;-57
2022/03/04 09:16:22;;;;;;;;;;;1.00;99.90;;;;;;5106763;28;19920;-58
2022/03/04 09:18:48;;;;;;;;;;;1.00;99.90;;;;;;5098287;28;19963;-58
2022/03/04 09:21:13;;;;;;;;;;;1.10;99.90;;;;;;5099344;28;19920;-57
2022/03/04 09:23:39;;;;;;;;;;;1.20;99.90;;;;;;5105234;28;19919;-57
2022/03/04 09:26:04;;;;;;;;;;;1.20;99.90;;;;;;5115813;28;19928;-58
2022/03/04 09:28:30;;;;;;;;;;;1.20;99.90;;;;;;5097257;28;19920;-58
2022/03/04 09:30:56;;;;;;;;;;;1.20;99.90;;;;;;5115199;28;20077;-58
2022/03/04 09:33:21;;;;;;;;;;;1.30;99.90;;;;;;5117111;28;19926;-57
2022/03/04 09:35:47;;;;;;;;;;;1.50;99.90;;;;;;5101698;28;20362;-58
2022/03/04 09:38:13;;;;;;;;;;;1.70;99.90;;;;;;5093910;28;20365;-58
2022/03/04 09:40:38;;;;;;;;;;;1.70;99.90;;;;;;5109362;28;20392;-58
2022/03/04 09:43:07;;;;;;;;;;;1.50;99.90;;;;;;5096620;28;19920;-57
2022/03/04 09:45:33;;;;;;;;;;;1.50;99.90;;;;;;5104061;28;19947;-58
2022/03/04 09:48:02;;;;;;;;;;;1.50;99.90;;;;;;5113515;28;19950;-58
2022/03/04 09:50:28;;;;;;;;;;;1.70;99.90;;;;;;5100489;28;20033;-58
2022/03/04 09:52:53;;;;;;;;;;;1.90;99.90;;;;;;5092585;28;19967;-58
2022/03/04 09:55:19;;;;;;;;;;;2.00;99.90;;;;;;5094771;28;19919;-57
2022/03/04 09:57:44;;;;;;;;;;;1.90;99.90;;;;;;5093031;28;20369;-58
2022/03/04 10:00:13;;;;;;;;;;;1.90;99.90;;;;;;5094927;28;19963;-57
2022/03/04 10:02:39;;;;;;;;;;;1.90;99.90;;;;;;5092625;28;20381;-58
2022/03/04 10:05:04;;;;;;;;;;;1.90;99.90;;;;;;5094064;28;19927;-58
2022/03/04 10:07:40;;;;;;;;;;;1.80;99.90;;;;;;5093767;28;19986;-57
2022/03/04 10:10:10;;;;;;;;;;;1.80;99.90;;;;;;5099560;28;20014;-58
2022/03/04 10:12:44;;;;;;;;;;;2.20;99.90;;;;;;5112396;28;19919;-57
2022/03/04 10:15:10;;;;;;;;;;;2.30;99.90;;;;;;5097977;28;19920;-58
2022/03/04 10:17:36;;;;;;;;;;;2.20;99.90;;;;;;5092464;28;19958;-57
2022/03/04 10:20:03;;;;;;;;;;;2.10;99.90;;;;;;5092326;28;19926;-58
2022/03/04 10:22:42;;;;;;;;;;;2.10;99.90;;;;;;5093996;28;19928;-56
2022/03/04 10:25:13;;;;;;;;;;;2.10;99.90;;;;;;5093307;28;19924;-58
2022/03/04 10:27:39;;;;;;;;;;;2.00;99.90;;;;;;5092486;28;19920;-58
2022/03/04 10:30:04;;;;;;;;;;;2.10;99.90;;;;;;5092700;28;19919;-58
2022/03/04 10:32:31;;;;;;;;;;;2.20;99.90;;;;;;5073449;28;19920;-57
2022/03/04 10:35:03;;;;;;;;;;;2.30;99.90;;;;;;5102705;28;19920;-57
2022/03/04 10:37:56;;;;;;;;;;;2.30;99.90;;;;;;5092920;28;19924;-58
2022/03/04 10:40:23;;;;;;;;;;;2.30;99.90;;;;;;5091977;28;19920;-58
2022/03/04 10:42:49;;;;;;;;;;;2.40;99.90;;;;;;5091924;28;19920;-57
2022/03/04 10:45:23;;;;;;;;;;;2.50;99.90;;;;;;5096892;28;19927;-57
2022/03/04 10:47:50;;;;;;;;;;;2.60;99.90;;;;;;5110592;28;19927;-57
2022/03/04 10:50:17;;;;;;;;;;;2.60;99.90;;;;;;5078644;28;19926;-57
2022/03/04 10:52:57;;;;;;;;;;;2.80;99.90;;;;;;5111806;28;19973;-58
2022/03/04 10:55:36;;;;;;;;;;;3.00;99.90;;;;;;5095113;28;20354;-58
2022/03/04 10:58:04;;;;;;;;;;;3.20;99.90;;;;;;5113045;28;20384;-57
2022/03/04 11:00:31;;;;;;;;;;;3.20;99.90;;;;;;5109556;28;19920;-57
2022/03/04 11:02:56;;;;;;;;;;;3.30;99.90;;;;;;5095256;28;20377;-56
2022/03/04 11:05:22;;;;;;;;;;;3.50;99.90;;;;;;5096523;28;20026;-57
2022/03/04 11:07:48;;;;;;;;;;;3.50;99.90;;;;;;5101049;28;19920;-57
2022/03/04 11:10:14;;;;;;;;;;;3.50;99.90;;;;;;5098082;28;20019;-57
2022/03/04 11:12:42;;;;;;;;;;;3.80;99.90;;;;;;5110442;28;20026;-57
2022/03/04 11:15:11;;;;;;;;;;;4.00;99.90;;;;;;5095550;28;19966;-58
2022/03/04 11:17:37;;;;;;;;;;;3.90;99.90;;;;;;5100449;28;19920;-57
2022/03/04 11:20:03;;;;;;;;;;;4.00;99.90;;;;;;5099195;28;20267;-58
2022/03/04 11:22:29;;;;;;;;;;;4.30;99.90;;;;;;5100514;28;19978;-57
2022/03/04 11:24:59;;;;;;;;;;;4.30;99.90;;;;;;5082032;28;19924;-58
2022/03/04 11:27:26;;;;;;;;;;;4.60;99.90;;;;;;5113438;28;19990;-58
2022/03/04 11:29:55;;;;;;;;;;;4.80;99.90;;;;;;5109751;28;19927;-56
2022/03/04 11:32:27;;;;;;;;;;;5.00;99.90;;;;;;5096468;28;20267;-58
2022/03/04 11:34:53;;;;;;;;;;;4.90;99.90;;;;;;5077779;28;19920;-57
2022/03/04 11:37:19;;;;;;;;;;;5.00;99.90;;;;;;5115881;28;19927;-58
2022/03/04 11:40:01;;;;;;;;;;;4.90;99.90;;;;;;5092777;28;19920;-58
2022/03/04 11:42:35;;;;;;;;;;;4.90;99.90;;;;;;5104065;28;20358;-58
2022/03/04 11:45:02;;;;;;;;;;;5.00;99.90;;;;;;5115481;28;19964;-58
2022/03/04 11:47:30;;;;;;;;;;;5.00;99.90;;;;;;5115720;28;19919;-57
2022/03/04 11:49:56;;;;;;;;;;;5.20;99.90;;;;;;5115319;28;19973;-57
2022/03/04 11:52:25;;;;;;;;;;;5.40;99.90;;;;;;5115092;28;19955;-58
2022/03/04 11:54:51;;;;;;;;;;;5.50;99.90;;;;;;5115208;28;19927;-57
2022/03/04 11:57:21;;;;;;;;;;;5.60;99.90;;;;;;5115258;28;19919;-58
2022/03/04 11:59:50;;;;;;;;;;;5.60;99.90;;;;;;5114967;28;19920;-58
2022/03/04 12:02:25;;;;;;;;;;;5.70;99.90;;;;;;5115370;28;19981;-58
2022/03/04 12:05:10;;;;;;;;;;;5.80;99.90;;;;;;5114803;28;19941;-58
2022/03/04 12:07:36;;;;;;;;;;;5.70;99.90;;;;;;5115030;28;19920;-58
2022/03/04 12:10:03;;;;;;;;;;;5.80;99.90;;;;;;5115356;28;19919;-58
2022/03/04 12:12:28;;;;;;;;;;;5.90;99.90;;;;;;5115262;28;19955;-58
2022/03/04 12:14:55;;;;;;;;;;;6.00;99.90;;;;;;5115086;28;19920;-58
2022/03/04 12:17:20;;;;;;;;;;;6.10;99.90;;;;;;5115146;28;19919;-58
2022/03/04 12:19:48;;;;;;;;;;;6.00;99.90;;;;;;5114924;28;19926;-57
2022/03/04 12:22:15;;;;;;;;;;;6.10;99.90;;;;;;5114935;28;19989;-58
2022/03/04 12:24:50;;;;;;;;;;;6.40;99.90;;;;;;5114712;28;20030;-58
2022/03/04 12:27:36;;;;;;;;;;;6.40;99.90;;;;;;5096435;28;20337;-58
2022/03/04 12:30:18;;;;;;;;;;;6.50;99.90;;;;;;5114696;28;19930;-58
2022/03/04 12:32:53;;;;;;;;;;;6.70;99.90;;;;;;5114669;28;20014;-58
2022/03/04 12:35:21;;;;;;;;;;;6.80;99.90;;;;;;5114795;28;19970;-58
2022/03/04 12:37:46;;;;;;;;;;;6.80;99.90;;;;;;5096207;28;19923;-58
2022/03/04 12:40:12;;;;;;;;;;;6.70;99.90;;;;;;5114686;28;19919;-58
2022/03/04 12:42:38;;;;;;;;;;;6.80;99.90;;;;;;5114499;28;19973;-58
2022/03/04 12:45:10;;;;;;;;;;;6.90;99.90;;;;;;5114340;28;19920;-58
2022/03/04 12:47:36;;;;;;;;;;;6.90;99.90;;;;;;5114389;28;19920;-58
2022/03/04 12:50:03;;;;;;;;;;;6.90;99.90;;;;;;5114824;28;19920;-58
2022/03/04 12:52:28;;;;;;;;;;;7.00;99.90;;;;;;5114276;28;19990;-58
2022/03/04 12:54:53;;;;;;;;;;;7.10;99.90;;;;;;5114395;28;19978;-58
2022/03/04 12:57:23;;;;;;;;;;;7.10;99.90;;;;;;5114125;28;20377;-58
2022/03/04 12:59:48;;;;;;;;;;;7.20;99.90;;;;;;5114058;28;19998;-58
2022/03/04 13:02:14;;;;;;;;;;;7.30;99.90;;;;;;5113985;28;20356;-58
2022/03/04 13:04:41;;;;;;;;;;;7.40;99.90;;;;;;5114289;28;19923;-58
2022/03/04 13:07:06;;;;;;;;;;;7.30;99.90;;;;;;5114297;28;19920;-58
2022/03/04 13:09:32;;;;;;;;;;;7.50;99.90;;;;;;5114046;28;20373;-57
2022/03/04 13:12:05;;;;;;;;;;;7.40;99.90;;;;;;5113982;28;19920;-58
2022/03/04 13:14:32;;;;;;;;;;;7.50;99.90;;;;;;5113808;28;19947;-57
2022/03/04 13:16:58;;;;;;;;;;;7.50;99.90;;;;;;5113251;28;20014;-58
2022/03/04 13:19:25;;;;;;;;;;;7.60;99.90;;;;;;5113938;28;19997;-58
2022/03/04 13:21:59;;;;;;;;;;;7.80;99.90;;;;;;5113901;28;19919;-59
2022/03/04 13:24:43;;;;;;;;;;;7.80;99.90;;;;;;5095617;28;19942;-58
2022/03/04 13:27:10;;;;;;;;;;;8.00;99.90;;;;;;5113470;28;19924;-58
2022/03/04 13:29:43;;;;;;;;;;;8.00;97.00;;;;;;5113820;28;19920;-58
2022/03/04 13:32:11;;;;;;;;;;;8.10;97.00;;;;;;5113604;28;20367;-58
2022/03/04 13:34:37;;;;;;;;;;;8.20;97.60;;;;;;5113656;28;19927;-58
2022/03/04 13:37:07;;;;;;;;;;;8.20;97.30;;;;;;5114090;28;19920;-58
2022/03/04 13:39:33;;;;;;;;;;;8.20;96.90;;;;;;5113560;28;20010;-58
2022/03/04 13:42:18;;;;;;;;;;;8.20;98.60;;;;;;5113798;28;20304;-58
2022/03/04 13:44:48;;;;;;;;;;;8.30;97.50;;;;;;5095523;28;19920;-59
2022/03/04 13:47:14;;;;;;;;;;;8.40;98.00;;;;;;5113568;28;19926;-57
2022/03/04 13:49:47;;;;;;;;;;;8.40;97.90;;;;;;5113638;28;19962;-58
2022/03/04 13:52:13;;;;;;;;;;;8.50;97.70;;;;;;5113549;28;19920;-58
2022/03/04 13:54:48;;;;;;;;;;;8.50;96.90;;;;;;5113869;28;19955;-58
2022/03/04 13:57:23;;;;;;;;;;;8.50;96.00;;;;;;5113549;28;19916;-57
2022/03/04 13:59:48;;;;;;;;;;;8.50;95.30;;;;;;5113548;28;19920;-58
2022/03/04 14:02:14;;;;;;;;;;;8.70;97.80;;;;;;5113678;28;19946;-58
2022/03/04 14:05:00;;;;;;;;;;;8.70;96.00;;;;;;5113455;28;19920;-58
2022/03/04 14:07:26;;;;;;;;;;;8.70;95.10;;;;;;5113051;28;19965;-57
2022/03/04 14:09:52;;;;;;;;;;;8.70;94.50;;;;;;5113805;28;19920;-59
2022/03/04 14:12:17;;;;;;;;;;;8.70;93.00;;;;;;5113397;28;19945;-58
2022/03/04 14:14:43;;;;;;;;;;;8.70;93.20;;;;;;5113244;28;19920;-58
2022/03/04 14:17:09;;;;;;;;;;;8.70;94.90;;;;;;5113610;28;19984;-58
2022/03/04 14:19:34;;;;;;;;;;;8.70;93.50;;;;;;5113345;28;19920;-58
2022/03/04 14:22:00;;;;;;;;;;;8.60;93.10;;;;;;5113133;28;20348;-56